Time,TemperatureF,DewpointF,PressureIn,WindDirection,WindDirectionDegrees,WindSpeedMPH,WindSpeedGustMPH,Humidity,HourlyPrecipIn,Conditions,Clouds,dailyrainin,SolarRadiationWatts/m^2,SoftwareType,DateUTC
2013-09-26 00:22:00,43.0,34.0,-100.00,ENE,77,0.0,3.0,71,0.00,,,0.00,0.000000,,2013-09-26 07:22:00,
2013-09-26 00:32:00,43.0,34.0,-100.00,ENE,77,0.0,3.0,71,0.00,,,0.00,0.000000,,2013-09-26 07:32:00,
2013-09-26 00:53:00,43.0,34.0,-100.00,ENE,77,0.0,3.0,71,0.00,,,0.00,0.000000,,2013-09-26 07:53:00,
2013-09-26 01:22:00,42.0,34.0,-100.00,ESE,121,0.0,4.0,72,0.00,,,0.00,0.000000,,2013-09-26 08:22:00,
2013-09-26 01:32:00,42.0,34.0,-100.00,ESE,121,0.0,4.0,72,0.00,,,0.00,0.000000,,2013-09-26 08:32:00,
2013-09-26 01:42:00,42.0,34.0,-100.00,ESE,121,0.0,4.0,72,0.00,,,0.00,0.000000,,2013-09-26 08:42:00,
2013-09-26 01:52:00,42.0,34.0,-100.00,ESE,121,0.0,4.0,72,0.00,,,0.00,0.000000,,2013-09-26 08:52:00,
2013-09-26 02:22:00,40.0,32.0,-100.00,East,90,0.0,4.0,74,0.00,,,0.00,0.000000,,2013-09-26 09:22:00,
2013-09-26 02:33:00,40.0,32.0,-100.00,East,90,0.0,4.0,74,0.00,,,0.00,0.000000,,2013-09-26 09:33:00,
2013-09-26 02:53:00,40.0,32.0,-100.00,East,90,0.0,4.0,74,0.00,,,0.00,0.000000,,2013-09-26 09:53:00,
2013-09-26 03:23:00,38.0,32.0,-100.00,East,81,0.0,2.0,78,0.00,,,0.00,0.000000,,2013-09-26 10:23:00,
2013-09-26 03:32:00,38.0,32.0,-100.00,East,81,0.0,2.0,78,0.00,,,0.00,0.000000,,2013-09-26 10:32:00,
2013-09-26 03:42:00,38.0,32.0,-100.00,East,81,0.0,2.0,78,0.00,,,0.00,0.000000,,2013-09-26 10:42:00,
2013-09-26 03:53:00,38.0,32.0,-100.00,East,81,0.0,2.0,78,0.00,,,0.00,0.000000,,2013-09-26 10:53:00,
2013-09-26 04:22:00,37.0,31.0,-100.00,East,95,0.0,2.0,80,0.00,,,0.00,0.000000,,2013-09-26 11:22:00,
2013-09-26 04:33:00,37.0,31.0,-100.00,East,95,0.0,2.0,80,0.00,,,0.00,0.000000,,2013-09-26 11:33:00,
2013-09-26 04:42:00,37.0,31.0,-100.00,East,95,0.0,2.0,80,0.00,,,0.00,0.000000,,2013-09-26 11:42:00,
2013-09-26 04:52:00,37.0,31.0,-100.00,East,95,0.0,2.0,80,0.00,,,0.00,0.000000,,2013-09-26 11:52:00,
2013-09-26 05:22:00,37.0,32.0,-100.00,East,83,0.0,4.0,82,0.00,,,0.00,0.000000,,2013-09-26 12:22:00,
2013-09-26 05:32:00,37.0,32.0,-100.00,East,83,0.0,4.0,82,0.00,,,0.00,0.000000,,2013-09-26 12:32:00,
2013-09-26 05:52:00,37.0,32.0,-100.00,East,83,0.0,4.0,82,0.00,,,0.00,0.000000,,2013-09-26 12:52:00,
2013-09-26 06:22:00,40.0,33.0,-100.00,East,99,0.0,3.0,75,0.00,,,0.00,0.000000,,2013-09-26 13:22:00,
2013-09-26 06:32:00,40.0,33.0,-100.00,East,99,0.0,3.0,75,0.00,,,0.00,0.000000,,2013-09-26 13:32:00,
2013-09-26 06:42:00,40.0,33.0,-100.00,East,99,0.0,3.0,75,0.00,,,0.00,0.000000,,2013-09-26 13:42:00,
2013-09-26 06:52:00,40.0,33.0,-100.00,East,99,0.0,3.0,75,0.00,,,0.00,0.000000,,2013-09-26 13:52:00,
2013-09-26 07:22:00,39.0,33.0,-100.00,ENE,77,0.0,5.0,78,0.00,,,0.00,1.000000,,2013-09-26 14:22:00,
2013-09-26 07:32:00,39.0,33.0,-100.00,ENE,77,0.0,5.0,78,0.00,,,0.00,1.000000,,2013-09-26 14:32:00,
2013-09-26 07:42:00,39.0,33.0,-100.00,ENE,77,0.0,5.0,78,0.00,,,0.00,1.000000,,2013-09-26 14:42:00,
2013-09-26 07:52:00,39.0,33.0,-100.00,ENE,77,0.0,5.0,78,0.00,,,0.00,1.000000,,2013-09-26 14:52:00,
2013-09-26 08:22:00,42.0,35.0,-100.00,NNE,25,0.0,0.0,75,0.00,,,0.00,49.000000,,2013-09-26 15:22:00,
2013-09-26 08:33:00,42.0,35.0,-100.00,NNE,25,0.0,0.0,75,0.00,,,0.00,49.000000,,2013-09-26 15:33:00,
2013-09-26 08:44:00,42.0,35.0,-100.00,NNE,25,0.0,0.0,75,0.00,,,0.00,49.000000,,2013-09-26 15:44:00,
2013-09-26 08:53:00,42.0,35.0,-100.00,NNE,25,0.0,0.0,75,0.00,,,0.00,49.000000,,2013-09-26 15:53:00,
2013-09-26 09:24:00,45.0,35.0,-100.00,WNW,300,0.0,0.0,67,0.00,,,-99.99,100.000000,,2013-09-26 16:24:00,
2013-09-26 09:33:00,45.0,35.0,-100.00,WNW,300,0.0,0.0,67,0.00,,,-99.99,100.000000,,2013-09-26 16:33:00,
2013-09-26 09:43:00,45.0,35.0,-100.00,WNW,300,0.0,0.0,67,0.00,,,-99.99,100.000000,,2013-09-26 16:43:00,
2013-09-26 09:53:00,45.0,35.0,-100.00,WNW,300,0.0,0.0,67,0.00,,,-99.99,100.000000,,2013-09-26 16:53:00,
2013-09-26 10:23:00,55.0,37.0,-100.00,North,5,1.0,3.0,50,0.00,,,0.00,127.000000,,2013-09-26 17:23:00,
2013-09-26 10:34:00,55.0,37.0,-100.00,North,5,1.0,3.0,50,0.00,,,0.00,127.000000,,2013-09-26 17:34:00,
2013-09-26 10:43:00,55.0,37.0,-100.00,North,5,1.0,3.0,50,0.00,,,0.00,127.000000,,2013-09-26 17:43:00,
2013-09-26 10:52:00,55.0,37.0,-100.00,North,5,1.0,3.0,50,0.00,,,0.00,127.000000,,2013-09-26 17:52:00,
2013-09-26 11:22:00,60.0,37.0,-100.00,SW,223,3.0,6.0,43,0.00,,,0.00,554.000000,,2013-09-26 18:22:00,
2013-09-26 11:32:00,60.0,37.0,-100.00,SW,223,3.0,6.0,43,0.00,,,0.00,554.000000,,2013-09-26 18:32:00,
2013-09-26 11:42:00,60.0,37.0,-100.00,SW,223,3.0,6.0,43,0.00,,,0.00,554.000000,,2013-09-26 18:42:00,
2013-09-26 11:52:00,60.0,37.0,-100.00,SW,223,3.0,6.0,43,0.00,,,0.00,554.000000,,2013-09-26 18:52:00,
2013-09-26 12:22:00,58.0,37.0,-100.00,SW,233,6.0,11.0,46,0.00,,,0.00,905.000000,,2013-09-26 19:22:00,
2013-09-26 12:32:00,58.0,37.0,-100.00,SW,233,6.0,11.0,46,0.00,,,0.00,905.000000,,2013-09-26 19:32:00,
2013-09-26 12:43:00,58.0,37.0,-100.00,SW,233,6.0,11.0,46,0.00,,,0.00,905.000000,,2013-09-26 19:43:00,
2013-09-26 12:52:00,58.0,37.0,-100.00,SW,233,6.0,11.0,46,0.00,,,0.00,905.000000,,2013-09-26 19:52:00,
2013-09-26 13:22:00,62.0,36.0,-100.00,West,265,5.0,13.0,38,0.00,,,0.00,1024.000000,,2013-09-26 20:22:00,
2013-09-26 13:32:00,62.0,36.0,-100.00,West,265,5.0,13.0,38,0.00,,,0.00,1024.000000,,2013-09-26 20:32:00,
2013-09-26 13:42:00,62.0,36.0,-100.00,West,265,5.0,13.0,38,0.00,,,0.00,1024.000000,,2013-09-26 20:42:00,
2013-09-26 13:52:00,62.0,36.0,-100.00,West,265,5.0,13.0,38,0.00,,,0.00,1024.000000,,2013-09-26 20:52:00,
2013-09-26 14:23:00,56.0,34.0,-100.00,East,96,3.0,14.0,44,0.00,,,-99.99,667.000000,,2013-09-26 21:23:00,
2013-09-26 14:34:00,56.0,34.0,-100.00,East,96,3.0,14.0,44,0.00,,,-99.99,667.000000,,2013-09-26 21:34:00,
2013-09-26 14:44:00,56.0,34.0,-100.00,East,96,3.0,14.0,44,0.00,,,-99.99,667.000000,,2013-09-26 21:44:00,
2013-09-26 14:54:00,56.0,34.0,-100.00,East,96,3.0,14.0,44,0.00,,,-99.99,667.000000,,2013-09-26 21:54:00,
2013-09-26 15:24:00,62.0,35.0,-100.00,West,280,3.0,15.0,37,0.00,,,0.00,617.000000,,2013-09-26 22:24:00,
2013-09-26 15:32:00,62.0,35.0,-100.00,West,280,3.0,15.0,37,0.00,,,0.00,617.000000,,2013-09-26 22:32:00,
2013-09-26 15:42:00,62.0,35.0,-100.00,West,280,3.0,15.0,37,0.00,,,0.00,617.000000,,2013-09-26 22:42:00,
2013-09-26 15:54:00,62.0,35.0,-100.00,West,280,3.0,15.0,37,0.00,,,0.00,617.000000,,2013-09-26 22:54:00,
2013-09-26 16:23:00,62.0,33.0,-100.00,SW,233,4.0,12.0,34,0.00,,,0.00,804.000000,,2013-09-26 23:23:00,
2013-09-26 16:34:00,62.0,33.0,-100.00,SW,233,4.0,12.0,34,0.00,,,0.00,804.000000,,2013-09-26 23:34:00,
2013-09-26 16:42:00,62.0,33.0,-100.00,SW,233,4.0,12.0,34,0.00,,,0.00,804.000000,,2013-09-26 23:42:00,
2013-09-26 16:53:00,62.0,33.0,-100.00,SW,233,4.0,12.0,34,0.00,,,0.00,804.000000,,2013-09-26 23:53:00,
2013-09-26 17:22:00,62.0,32.0,-100.00,WSW,243,5.0,12.0,32,0.00,,,-99.99,556.000000,,2013-09-27 00:22:00,
2013-09-26 17:32:00,62.0,32.0,-100.00,WSW,243,5.0,12.0,32,0.00,,,-99.99,556.000000,,2013-09-27 00:32:00,
2013-09-26 17:43:00,62.0,32.0,-100.00,WSW,243,5.0,12.0,32,0.00,,,-99.99,556.000000,,2013-09-27 00:43:00,
2013-09-26 17:52:00,62.0,32.0,-100.00,WSW,243,5.0,12.0,32,0.00,,,-99.99,556.000000,,2013-09-27 00:52:00,
2013-09-26 18:23:00,59.0,32.0,-100.00,WSW,240,5.0,14.0,36,0.00,,,0.00,313.000000,,2013-09-27 01:23:00,
2013-09-26 18:32:00,59.0,32.0,-100.00,WSW,240,5.0,14.0,36,0.00,,,0.00,313.000000,,2013-09-27 01:32:00,
2013-09-26 18:42:00,59.0,32.0,-100.00,WSW,240,5.0,14.0,36,0.00,,,0.00,313.000000,,2013-09-27 01:42:00,
2013-09-26 18:52:00,59.0,32.0,-100.00,WSW,240,5.0,14.0,36,0.00,,,0.00,313.000000,,2013-09-27 01:52:00,
2013-09-26 19:22:00,51.0,31.0,-100.00,SW,236,1.0,16.0,46,0.00,,,0.00,34.000000,,2013-09-27 02:22:00,
2013-09-26 19:32:00,51.0,31.0,-100.00,SW,236,1.0,16.0,46,0.00,,,0.00,34.000000,,2013-09-27 02:32:00,
2013-09-26 19:53:00,51.0,31.0,-100.00,SW,236,1.0,16.0,46,0.00,,,0.00,34.000000,,2013-09-27 02:53:00,
2013-09-26 20:55:00,46.0,30.0,-100.00,East,83,0.0,9.0,53,0.00,,,0.00,0.000000,,2013-09-27 03:55:00,
2013-09-26 21:24:00,44.0,30.0,-100.00,East,93,0.0,3.0,58,0.00,,,0.00,0.000000,,2013-09-27 04:24:00,
2013-09-26 21:33:00,44.0,30.0,-100.00,East,93,0.0,3.0,58,0.00,,,0.00,0.000000,,2013-09-27 04:33:00,
2013-09-26 21:54:00,44.0,30.0,-100.00,East,93,0.0,3.0,58,0.00,,,0.00,0.000000,,2013-09-27 04:54:00,
2013-09-26 22:23:00,44.0,32.0,-100.00,ESE,116,1.0,5.0,63,0.00,,,0.00,0.000000,,2013-09-27 05:23:00,
2013-09-26 22:34:00,44.0,32.0,-100.00,ESE,116,1.0,5.0,63,0.00,,,0.00,0.000000,,2013-09-27 05:34:00,
2013-09-26 22:43:00,44.0,32.0,-100.00,ESE,116,1.0,5.0,63,0.00,,,0.00,0.000000,,2013-09-27 05:43:00,
2013-09-26 22:52:00,44.0,32.0,-100.00,ESE,116,1.0,5.0,63,0.00,,,0.00,0.000000,,2013-09-27 05:52:00,
2013-09-26 23:22:00,45.0,33.0,-100.00,ESE,102,3.0,6.0,63,0.00,,,0.00,0.000000,,2013-09-27 06:22:00,
2013-09-26 23:32:00,45.0,33.0,-100.00,ESE,102,3.0,6.0,63,0.00,,,0.00,0.000000,,2013-09-27 06:32:00,
2013-09-26 23:42:00,45.0,33.0,-100.00,ESE,102,3.0,6.0,63,0.00,,,0.00,0.000000,,2013-09-27 06:42:00,
2013-09-26 23:52:00,45.0,33.0,-100.00,ESE,102,3.0,6.0,63,0.00,,,0.00,0.000000,,2013-09-27 06:52:00,